createdAt,value
2022-12-19T00:01:27.635Z,103380.22
2022-12-19T00:03:57.583Z,103384.53
2022-12-19T00:06:25.036Z,103394.78
2022-12-19T00:08:52.363Z,103373.41
2022-12-19T00:11:20.175Z,103376.97
2022-12-19T00:13:47.342Z,103365.00
2022-12-19T00:16:17.644Z,103362.38
2022-12-19T00:18:46.373Z,103356.34
2022-12-19T00:21:17.345Z,103364.09
2022-12-19T00:23:44.248Z,103367.34
2022-12-19T00:26:18.962Z,103377.59
2022-12-19T00:28:47.644Z,103361.31
2022-12-19T00:31:15.828Z,103368.13
2022-12-19T00:33:43.598Z,103363.81
2022-12-19T00:36:22.925Z,103368.13
2022-12-19T00:38:51.370Z,103331.16
2022-12-19T00:41:28.963Z,103360.47
2022-12-19T00:43:59.525Z,103363.88
2022-12-19T00:46:26.627Z,103343.25
2022-12-19T00:48:55.986Z,103334.84
2022-12-19T00:51:24.285Z,103345.09
2022-12-19T00:53:51.303Z,103343.41
2022-12-19T00:56:20.903Z,103313.44
2022-12-19T00:58:47.902Z,103328.06
2022-12-19T01:01:19.802Z,103332.31
2022-12-19T01:04:18.585Z,103312.56
2022-12-19T01:06:33.603Z,103325.44
2022-12-19T01:09:01.103Z,103309.16
2022-12-19T01:11:46.545Z,103333.06
2022-12-19T01:14:19.066Z,103324.56
2022-12-19T01:16:47.871Z,103318.59
2022-12-19T01:19:14.766Z,103325.38
2022-12-19T01:21:41.884Z,103314.31
2022-12-19T01:24:09.704Z,103309.91
2022-12-19T01:26:36.467Z,103306.53
2022-12-19T01:29:03.247Z,103308.25
2022-12-19T01:31:30.019Z,103291.81
2022-12-19T01:33:56.790Z,103288.41
2022-12-19T01:36:23.563Z,103310.00
2022-12-19T01:38:50.545Z,103311.00
2022-12-19T01:41:17.325Z,103293.94
2022-12-19T01:44:04.383Z,103300.19
2022-12-19T01:46:33.772Z,103290.13
2022-12-19T01:49:00.867Z,103271.34
2022-12-19T01:51:35.772Z,103269.03
2022-12-19T01:54:04.631Z,103276.00
2022-12-19T01:56:40.573Z,103269.22
2022-12-19T01:59:10.498Z,103255.56
2022-12-19T02:01:45.820Z,103269.34
2022-12-19T02:04:18.873Z,103243.72
2022-12-19T02:06:45.672Z,103257.50
2022-12-19T02:09:12.493Z,103270.38
2022-12-19T02:11:39.295Z,103269.53
2022-12-19T02:14:06.140Z,103264.50
2022-12-19T02:16:46.934Z,103213.03
2022-12-19T02:19:46.095Z,103250.91
2022-12-19T02:22:36.838Z,103251.78
2022-12-19T02:25:14.461Z,103224.31
2022-12-19T02:28:05.884Z,103241.59
2022-12-19T02:31:17.863Z,103244.13
2022-12-19T02:34:08.916Z,103247.53
2022-12-19T02:36:41.954Z,103233.00
2022-12-19T02:39:36.712Z,103239.06
2022-12-19T02:42:03.851Z,103214.22
2022-12-19T02:44:39.212Z,103231.34
2022-12-19T02:47:06.473Z,103232.25
2022-12-19T02:49:34.679Z,103233.94
2022-12-19T02:52:19.945Z,103234.88
2022-12-19T02:54:56.517Z,103217.75
2022-12-19T02:57:30.255Z,103215.31
2022-12-19T03:00:09.201Z,103214.56
2022-12-19T03:03:00.568Z,103201.78
2022-12-19T03:05:32.474Z,103191.50
2022-12-19T03:08:09.145Z,103189.88
2022-12-19T03:10:49.984Z,103182.97
2022-12-19T03:13:55.529Z,103181.31
2022-12-19T03:16:22.330Z,103179.50
2022-12-19T03:18:49.087Z,103184.63
2022-12-19T03:21:18.267Z,103188.91
2022-12-19T03:23:45.250Z,103169.19
2022-12-19T03:26:17.169Z,103170.03
2022-12-19T03:29:07.917Z,103164.78
2022-12-19T03:31:34.789Z,103182.63
2022-12-19T03:34:22.749Z,103176.59
2022-12-19T03:36:52.571Z,103168.84
2022-12-19T03:39:19.397Z,103169.66
2022-12-19T03:42:04.522Z,103180.75
2022-12-19T03:44:33.734Z,103153.38
2022-12-19T03:47:17.896Z,103173.94
2022-12-19T03:49:45.477Z,103168.84
2022-12-19T03:52:36.952Z,103150.69
2022-12-19T03:55:04.042Z,103182.38
2022-12-19T03:57:39.098Z,103182.44
2022-12-19T04:00:14.102Z,103176.44
2022-12-19T04:02:43.234Z,103149.91
2022-12-19T04:05:12.303Z,103172.19
2022-12-19T04:07:39.220Z,103167.94
2022-12-19T04:10:07.917Z,103168.78
2022-12-19T04:12:37.578Z,103169.56
2022-12-19T04:15:05.107Z,103135.97
2022-12-19T04:17:44.520Z,103159.13
2022-12-19T04:20:12.239Z,103173.66
2022-12-19T04:22:40.720Z,103176.19
2022-12-19T04:25:10.438Z,103160.84
2022-12-19T04:27:38.240Z,103136.06
2022-12-19T04:30:08.600Z,103154.09
2022-12-19T04:32:35.925Z,103128.44
2022-12-19T04:35:03.020Z,103143.94
2022-12-19T04:37:29.900Z,103137.97
2022-12-19T04:39:56.682Z,103140.53
2022-12-19T04:42:23.501Z,103137.13
2022-12-19T04:44:50.255Z,103148.16
2022-12-19T04:47:17.085Z,103118.06
2022-12-19T04:49:43.878Z,103143.91
2022-12-19T04:52:10.658Z,103147.41
2022-12-19T04:54:38.196Z,103138.03
2022-12-19T04:57:04.983Z,103139.78
2022-12-19T04:59:31.764Z,103132.16
2022-12-19T05:01:58.765Z,103121.84
2022-12-19T05:04:26.558Z,103135.66
2022-12-19T05:06:53.960Z,103110.06
2022-12-19T05:09:20.760Z,103119.41
2022-12-19T05:11:47.578Z,103115.25
2022-12-19T05:14:15.722Z,103127.28
2022-12-19T05:16:42.565Z,103130.69
2022-12-19T05:19:09.358Z,103114.38
2022-12-19T05:21:36.142Z,103125.59
2022-12-19T05:24:03.135Z,103127.31
2022-12-19T05:26:29.904Z,103112.00
2022-12-19T05:28:56.697Z,103117.94
2022-12-19T05:31:23.499Z,103114.53
2022-12-19T05:33:50.327Z,103100.78
2022-12-19T05:36:17.737Z,103112.88
2022-12-19T05:38:44.571Z,103106.91
2022-12-19T05:41:16.194Z,103097.59
2022-12-19T05:43:43.981Z,103094.16
2022-12-19T05:46:10.933Z,103088.19
2022-12-19T05:48:37.864Z,103066.88
2022-12-19T05:51:04.961Z,103075.44
2022-12-19T05:53:31.772Z,103095.91
2022-12-19T05:56:09.014Z,103091.72
2022-12-19T05:58:36.097Z,103077.16
2022-12-19T06:01:04.598Z,103077.22
2022-12-19T06:03:31.480Z,103066.97
2022-12-19T06:05:58.331Z,103067.91
2022-12-19T06:08:25.276Z,103063.66
2022-12-19T06:10:52.374Z,103067.13
2022-12-19T06:13:24.808Z,103053.47
2022-12-19T06:15:57.604Z,103056.84
2022-12-19T06:18:24.672Z,103023.59
2022-12-19T06:21:05.831Z,103027.09
2022-12-19T06:23:33.893Z,103046.78
2022-12-19T06:26:01.036Z,103034.75
2022-12-19T06:28:28.176Z,103021.88
2022-12-19T06:30:58.636Z,103042.50
2022-12-19T06:33:26.688Z,103039.03
2022-12-19T06:36:00.798Z,103039.13
2022-12-19T06:38:28.088Z,103036.59
2022-12-19T06:41:13.546Z,103034.84
2022-12-19T06:43:40.508Z,103002.31
2022-12-19T06:46:07.415Z,103043.47
2022-12-19T06:48:34.348Z,103024.59
2022-12-19T06:51:01.198Z,103039.25
2022-12-19T06:53:28.105Z,103032.44
2022-12-19T06:55:56.386Z,103035.09
2022-12-19T06:58:24.444Z,103041.88
2022-12-19T07:00:51.777Z,103027.38
2022-12-19T07:03:23.203Z,103023.09
2022-12-19T07:05:50.004Z,103009.44
2022-12-19T07:08:16.938Z,103012.91
2022-12-19T07:10:43.758Z,103030.88
2022-12-19T07:13:10.545Z,103037.78
2022-12-19T07:15:37.930Z,102983.84
2022-12-19T07:18:05.190Z,103009.75
2022-12-19T07:20:32.104Z,103019.22
2022-12-19T07:22:58.868Z,103009.84
2022-12-19T07:25:25.624Z,102974.78
2022-12-19T07:27:52.447Z,103000.59
2022-12-19T07:30:19.395Z,103006.66
2022-12-19T07:32:46.187Z,103007.59
2022-12-19T07:35:12.992Z,103000.88
2022-12-19T07:37:40.333Z,102997.53
2022-12-19T07:40:07.724Z,102983.00
2022-12-19T07:42:35.267Z,102996.75
2022-12-19T07:45:02.079Z,102987.41
2022-12-19T07:47:28.862Z,102992.59
2022-12-19T07:49:55.645Z,102989.25
2022-12-19T07:52:22.436Z,102991.88
2022-12-19T07:54:49.205Z,102980.84
2022-12-19T07:57:16.144Z,102980.03
2022-12-19T07:59:42.911Z,102977.53
2022-12-19T08:02:10.247Z,102964.81
2022-12-19T08:04:37.337Z,102974.19
2022-12-19T08:07:04.484Z,102980.25
2022-12-19T08:09:31.345Z,102962.34
2022-12-19T08:11:58.943Z,102966.72
2022-12-19T08:14:25.836Z,102962.47
2022-12-19T08:17:20.916Z,102965.09
2022-12-19T08:19:39.370Z,102954.91
2022-12-19T08:22:06.155Z,102949.78
2022-12-19T08:24:33.328Z,102943.91
2022-12-19T08:27:00.098Z,102941.38
2022-12-19T08:29:26.865Z,102925.16
2022-12-19T08:31:53.653Z,102932.06
2022-12-19T08:34:20.441Z,102936.34
2022-12-19T08:36:47.305Z,102913.31
2022-12-19T08:39:14.214Z,102918.47
2022-12-19T08:41:40.996Z,102909.97
2022-12-19T08:44:10.878Z,102908.28
2022-12-19T08:46:37.856Z,102902.31
2022-12-19T08:49:04.825Z,102881.84
2022-12-19T08:51:31.644Z,102891.25
2022-12-19T08:53:59.090Z,102896.41
2022-12-19T08:56:25.928Z,102866.53
2022-12-19T08:58:52.728Z,102869.94
2022-12-19T09:01:20.447Z,102856.28
2022-12-19T09:05:21.464Z,102842.63
2022-12-19T09:06:34.923Z,102846.00
2022-12-19T09:09:02.645Z,102834.91
2022-12-19T09:11:29.467Z,102830.59
2022-12-19T09:13:56.887Z,102819.50
2022-12-19T09:16:24.934Z,102848.53
2022-12-19T09:18:53.121Z,102822.06
2022-12-19T09:21:22.967Z,102825.44
2022-12-19T09:23:54.111Z,102819.47
2022-12-19T09:26:21.898Z,102816.88
2022-12-19T09:28:50.030Z,102812.59
2022-12-19T09:31:19.423Z,102804.03
2022-12-19T09:33:46.825Z,102780.97
2022-12-19T09:36:15.630Z,102784.34
2022-12-19T09:38:42.550Z,102784.31
2022-12-19T09:41:29.176Z,102775.78
2022-12-19T09:44:33.510Z,102765.50
2022-12-19T09:47:26.849Z,102774.06
2022-12-19T09:49:54.544Z,102757.84
2022-12-19T09:52:33.141Z,102772.34
2022-12-19T09:55:24.772Z,102755.22
2022-12-19T09:57:55.947Z,102744.13
2022-12-19T10:00:22.871Z,102745.84
2022-12-19T10:03:10.215Z,102744.97
2022-12-19T10:06:33.632Z,102753.50
2022-12-19T10:08:33.302Z,102746.66
2022-12-19T10:12:40.989Z,102738.97
2022-12-19T10:14:21.250Z,102727.84
2022-12-19T10:20:13.128Z,102716.69
2022-12-19T10:22:50.823Z,102704.69
2022-12-19T10:25:26.748Z,102702.03
2022-12-19T10:28:00.562Z,102702.03
2022-12-19T10:30:31.696Z,102684.00
2022-12-19T10:33:21.250Z,102706.09
2022-12-19T10:35:52.030Z,102665.06
2022-12-19T10:38:45.326Z,102683.69
2022-12-19T10:41:23.232Z,102684.47
2022-12-19T10:44:02.609Z,102688.69
2022-12-19T10:46:49.538Z,102673.28
2022-12-19T10:49:23.692Z,102662.16
2022-12-19T10:51:56.607Z,102650.97
2022-12-19T10:54:33.085Z,102629.63
2022-12-19T10:57:23.107Z,102631.22
2022-12-19T11:00:04.251Z,102622.66
2022-12-19T11:02:40.339Z,102622.59
2022-12-19T11:05:46.247Z,102606.44
2022-12-19T11:08:24.302Z,102590.97
2022-12-19T11:12:39.650Z,102586.78
2022-12-19T11:20:06.049Z,102604.56
2022-12-19T11:21:36.372Z,102590.84
2022-12-19T11:29:31.090Z,102577.09
2022-12-19T11:29:41.965Z,102561.88
2022-12-19T11:30:36.288Z,102558.97
2022-12-19T11:30:38.739Z,102544.66
2022-12-19T11:34:06.832Z,102545.13
2022-12-19T11:36:50.021Z,102538.25
2022-12-19T11:39:32.977Z,102536.47
2022-12-19T11:42:12.431Z,102530.41
2022-12-19T11:45:12.481Z,102526.97
2022-12-19T11:48:16.798Z,102519.22
2022-12-19T11:51:06.043Z,102520.06
2022-12-19T11:54:05.081Z,102501.28
2022-12-19T11:56:31.906Z,102476.63
2022-12-19T11:59:04.977Z,102496.09
2022-12-19T12:01:58.570Z,102496.06
2022-12-19T12:04:46.967Z,102483.22
2022-12-19T12:08:48.596Z,102468.63
2022-12-19T12:12:47.465Z,102460.91
2022-12-19T12:20:21.907Z,102447.44
2022-12-19T12:30:53.673Z,102447.34
2022-12-19T12:31:07.592Z,102444.78
2022-12-19T12:31:23.832Z,102447.41
2022-12-19T12:31:46.588Z,102431.25
2022-12-19T12:31:47.726Z,102443.19
2022-12-19T12:35:47.068Z,102424.44
2022-12-19T12:37:08.259Z,102411.63
2022-12-19T12:38:25.129Z,102397.31
2022-12-19T12:41:15.044Z,102399.69
2022-12-19T12:44:08.973Z,102401.44
2022-12-19T12:46:40.185Z,102382.63
2022-12-19T12:49:33.125Z,102385.28
2022-12-19T12:52:00.098Z,102386.16
2022-12-19T12:54:31.339Z,102385.34
2022-12-19T12:56:58.414Z,102364.81
2022-12-19T12:59:29.496Z,102372.47
2022-12-19T13:01:59.875Z,102379.22
2022-12-19T13:04:28.555Z,102373.28
2022-12-19T13:07:27.928Z,102364.72
2022-12-19T13:10:25.556Z,102348.66
2022-12-19T13:13:21.140Z,102354.50
2022-12-19T13:15:51.106Z,102358.84
2022-12-19T13:18:39.392Z,102353.69
2022-12-19T13:21:07.608Z,102342.63
2022-12-19T13:23:37.060Z,102361.38
2022-12-19T13:26:04.480Z,102344.22
2022-12-19T13:28:31.243Z,102349.38
2022-12-19T13:31:19.174Z,102344.28
2022-12-19T13:34:14.865Z,102342.59
2022-12-19T13:39:51.352Z,102335.72
2022-12-19T13:40:12.263Z,102336.59
2022-12-19T13:43:10.816Z,102329.75
2022-12-19T13:45:38.755Z,102335.72
2022-12-19T13:48:13.034Z,102316.25
2022-12-19T13:50:40.433Z,102307.78
2022-12-19T13:53:18.371Z,102328.09
2022-12-19T13:55:45.212Z,102329.81
2022-12-19T13:58:32.803Z,102324.66
2022-12-19T14:01:20.742Z,102306.00
2022-12-19T14:03:48.530Z,102304.25
2022-12-19T14:06:26.393Z,102303.31
2022-12-19T14:08:59.319Z,102301.69
2022-12-19T14:13:45.125Z,102290.59
2022-12-19T14:14:49.313Z,102293.19
2022-12-19T14:17:36.011Z,102255.91
2022-12-19T14:20:37.225Z,102288.13
2022-12-19T14:22:49.563Z,102253.31
2022-12-19T14:28:20.206Z,102261.75
2022-12-19T14:28:21.750Z,102273.63
2022-12-19T14:31:04.555Z,102279.72
2022-12-19T14:33:44.256Z,102281.50
2022-12-19T14:36:21.366Z,102256.03
2022-12-19T14:39:25.059Z,102276.28
2022-12-19T14:42:02.616Z,102268.66
2022-12-19T14:52:02.646Z,102271.97
2022-12-19T14:54:11.823Z,102277.06
2022-12-19T14:54:22.084Z,102249.81
2022-12-19T14:54:40.195Z,102271.16
2022-12-19T14:59:02.049Z,102209.16
2022-12-19T15:01:33.853Z,102258.31
2022-12-19T15:04:53.510Z,102256.53
2022-12-19T15:07:11.830Z,102232.78
2022-12-19T15:11:02.798Z,102236.84
2022-12-19T15:14:53.853Z,102246.22
2022-12-19T15:15:50.877Z,102219.94
2022-12-19T15:18:24.705Z,102237.63
2022-12-19T15:20:52.318Z,102215.50
2022-12-19T15:23:22.329Z,102221.38
2022-12-19T15:26:06.953Z,102211.22
2022-12-19T15:28:49.957Z,102214.47
2022-12-19T15:31:24.601Z,102208.44
2022-12-19T15:36:38.311Z,102205.00
2022-12-19T15:39:05.558Z,102196.41
2022-12-19T15:41:32.565Z,102187.06
2022-12-19T15:44:04.533Z,102191.34
2022-12-19T15:46:31.956Z,102198.97
2022-12-19T15:48:58.865Z,102181.09
2022-12-19T15:51:25.692Z,102192.88
2022-12-19T15:53:52.473Z,102188.69
2022-12-19T15:56:29.738Z,102193.69
2022-12-19T15:58:57.464Z,102182.66
2022-12-19T16:01:24.413Z,102169.03
2022-12-19T16:03:51.568Z,102165.56
2022-12-19T16:06:18.703Z,102174.13
2022-12-19T16:08:45.660Z,102173.91
2022-12-19T16:11:30.226Z,102167.09
2022-12-19T16:13:57.403Z,102154.25
2022-12-19T16:16:25.385Z,102161.06
2022-12-19T16:18:52.278Z,102173.75
2022-12-19T16:21:31.495Z,102176.31
2022-12-19T16:24:00.582Z,102161.91
2022-12-19T16:26:33.164Z,102163.53
2022-12-19T16:29:00.114Z,102163.38
2022-12-19T16:31:27.358Z,102165.88
2022-12-19T16:33:54.377Z,102144.53
2022-12-19T16:36:21.345Z,102134.25
2022-12-19T16:38:48.285Z,102132.50
2022-12-19T16:41:17.894Z,102106.22
2022-12-19T16:43:44.797Z,102117.13
2022-12-19T16:46:18.413Z,102115.41
2022-12-19T16:48:45.371Z,102058.69
2022-12-19T16:51:22.274Z,102122.97
2022-12-19T16:53:50.801Z,102107.69
2022-12-19T16:56:40.701Z,102124.56
2022-12-19T16:59:29.225Z,102110.88
2022-12-19T17:01:56.211Z,102109.13
2022-12-19T17:04:24.772Z,102091.31
2022-12-19T17:06:52.256Z,102085.28
2022-12-19T17:09:23.437Z,102107.41
2022-12-19T17:11:56.235Z,102098.84
2022-12-19T17:14:27.904Z,102097.97
2022-12-19T17:16:55.475Z,102109.91
2022-12-19T17:19:26.724Z,102099.63
2022-12-19T17:21:53.524Z,102086.78
2022-12-19T17:24:20.327Z,102079.91
2022-12-19T17:26:47.317Z,102073.94
2022-12-19T17:29:14.189Z,102057.81
2022-12-19T17:31:41.285Z,102039.03
2022-12-19T17:34:28.538Z,102059.22
2022-12-19T17:36:55.343Z,102051.56
2022-12-19T17:39:24.083Z,102038.03
2022-12-19T17:41:51.111Z,102028.50
2022-12-19T17:44:18.039Z,102031.84
2022-12-19T17:46:45.402Z,102028.38
2022-12-19T17:49:30.611Z,101992.03
2022-12-19T17:51:57.654Z,102020.66
2022-12-19T17:54:25.380Z,102024.84
2022-12-19T17:56:52.424Z,102020.47
2022-12-19T17:59:20.148Z,102031.59
2022-12-19T18:01:47.619Z,101998.34
2022-12-19T18:04:16.431Z,102017.00
2022-12-19T18:06:43.346Z,101957.78
2022-12-19T18:09:20.254Z,102011.88
2022-12-19T18:11:47.970Z,101988.88
2022-12-19T18:14:14.994Z,102009.25
2022-12-19T18:16:41.941Z,102004.88
2022-12-19T18:19:19.702Z,101992.09
2022-12-19T18:21:46.634Z,101993.59
2022-12-19T18:24:14.835Z,101989.31
2022-12-19T18:26:42.251Z,101975.63
2022-12-19T18:29:09.061Z,101932.53
2022-12-19T18:31:39.937Z,101970.41
2022-12-19T18:34:24.170Z,101965.19
2022-12-19T18:36:51.436Z,101943.22
2022-12-19T18:39:26.026Z,101965.06
2022-12-19T18:41:53.021Z,101961.66
2022-12-19T18:44:20.066Z,101956.47
2022-12-19T18:46:48.833Z,101900.78
2022-12-19T18:49:16.924Z,101937.69
2022-12-19T18:51:44.919Z,101932.47
2022-12-19T18:54:19.433Z,101923.03
2022-12-19T18:56:46.352Z,101913.63
2022-12-19T18:59:13.345Z,101916.22
2022-12-19T19:01:42.718Z,101905.03
2022-12-19T19:04:12.252Z,101895.50
2022-12-19T19:06:42.166Z,101892.94
2022-12-19T19:09:16.344Z,101882.66
2022-12-19T19:11:43.142Z,101878.41
2022-12-19T19:14:10.042Z,101880.88
2022-12-19T19:16:37.158Z,101882.56
2022-12-19T19:19:04.813Z,101873.97
2022-12-19T19:21:33.300Z,101860.41
2022-12-19T19:24:08.841Z,101858.66
2022-12-19T19:26:35.666Z,101834.09
2022-12-19T19:29:03.109Z,101858.53
2022-12-19T19:31:30.691Z,101834.75
2022-12-19T19:34:03.930Z,101841.50
2022-12-19T19:36:31.484Z,101837.25
2022-12-19T19:38:58.350Z,101847.31
2022-12-19T19:41:29.827Z,101861.00
2022-12-19T19:43:57.575Z,101832.13
2022-12-19T19:46:24.479Z,101844.78
2022-12-19T19:48:51.523Z,101849.91
2022-12-19T19:51:18.366Z,101832.19
2022-12-19T19:53:45.201Z,101806.72
2022-12-19T19:56:11.973Z,101832.81
2022-12-19T19:58:38.804Z,101821.78
2022-12-19T20:01:12.979Z,101821.59
2022-12-19T20:03:40.493Z,101816.72
2022-12-19T20:06:07.787Z,101819.06
2022-12-19T20:08:39.549Z,101813.97
2022-12-19T20:11:07.283Z,101798.63
2022-12-19T20:13:34.232Z,101791.88
2022-12-19T20:16:06.644Z,101800.97
2022-12-19T20:18:33.867Z,101807.84
2022-12-19T20:21:00.719Z,101801.81
2022-12-19T20:23:27.592Z,101805.19
2022-12-19T20:25:54.353Z,101799.13
2022-12-19T20:28:21.222Z,101787.25
2022-12-19T20:30:48.040Z,101781.16
2022-12-19T20:33:14.892Z,101782.72
2022-12-19T20:35:42.673Z,101775.84
2022-12-19T20:38:09.503Z,101772.38
2022-12-19T20:40:36.273Z,101762.97
2022-12-19T20:43:03.078Z,101750.28
2022-12-19T20:45:29.902Z,101768.81
2022-12-19T20:47:56.902Z,101770.47
2022-12-19T20:50:23.781Z,101750.88
2022-12-19T20:52:50.757Z,101712.75
2022-12-19T20:55:17.605Z,101749.75
2022-12-19T20:57:44.511Z,101743.75
2022-12-19T21:00:13.118Z,101732.72
2022-12-19T21:03:24.894Z,101732.44
2022-12-19T21:05:26.759Z,101729.81
2022-12-19T21:07:53.581Z,101733.19
2022-12-19T21:10:20.804Z,101723.81
2022-12-19T21:12:48.219Z,101713.63
2022-12-19T21:15:15.658Z,101720.97
2022-12-19T21:17:42.471Z,101718.34
2022-12-19T21:20:09.862Z,101698.06
2022-12-19T21:22:36.754Z,101705.53
2022-12-19T21:25:04.411Z,101697.75
2022-12-19T21:27:31.187Z,101707.84
2022-12-19T21:29:58.103Z,101673.09
2022-12-19T21:32:25.112Z,101688.91
2022-12-19T21:34:54.997Z,101701.63
2022-12-19T21:37:24.308Z,101688.00
2022-12-19T21:39:51.169Z,101627.22
2022-12-19T21:42:17.993Z,101683.34
2022-12-19T21:44:44.814Z,101652.06
2022-12-19T21:47:11.731Z,101682.22
2022-12-19T21:49:38.604Z,101661.63
2022-12-19T21:52:05.554Z,101664.66
2022-12-19T21:54:32.411Z,101669.59
2022-12-19T21:56:59.253Z,101645.72
2022-12-19T21:59:26.225Z,101658.94
2022-12-19T22:01:53.176Z,101651.94
2022-12-19T22:04:22.352Z,101631.44
2022-12-19T22:06:50.226Z,101635.25
2022-12-19T22:09:19.493Z,101638.47
2022-12-19T22:11:46.462Z,101626.53
2022-12-19T22:14:13.685Z,101622.88
2022-12-19T22:16:40.482Z,101629.34
2022-12-19T22:19:07.389Z,101620.75
2022-12-19T22:21:34.217Z,101617.19
2022-12-19T22:24:01.815Z,101605.41
2022-12-19T22:26:31.856Z,101573.25
2022-12-19T22:28:59.017Z,101606.00
2022-12-19T22:31:27.626Z,101610.81
2022-12-19T22:33:56.155Z,101563.44
2022-12-19T22:36:28.074Z,101587.59
2022-12-19T22:38:55.838Z,101574.19
2022-12-19T22:41:22.876Z,101527.00
2022-12-19T22:43:49.752Z,101562.97
2022-12-19T22:46:26.602Z,101510.69
2022-12-19T22:48:53.788Z,101548.28
2022-12-19T22:51:20.868Z,101534.91
2022-12-19T22:53:47.858Z,101517.22
2022-12-19T22:56:16.722Z,101523.84
2022-12-19T22:58:45.404Z,101532.16
2022-12-19T23:01:24.211Z,101523.53
2022-12-19T23:03:52.493Z,101560.47
2022-12-19T23:06:19.842Z,101503.16
2022-12-19T23:08:49.872Z,101525.84
2022-12-19T23:11:21.453Z,101515.75
2022-12-19T23:13:48.802Z,101543.38
2022-12-19T23:16:16.295Z,101537.16
2022-12-19T23:18:43.264Z,101542.94
2022-12-19T23:21:15.128Z,101545.47
2022-12-19T23:23:45.745Z,101479.78
2022-12-19T23:26:24.986Z,101532.50
2022-12-19T23:28:57.119Z,101484.47
2022-12-19T23:31:24.233Z,101456.97
2022-12-19T23:33:51.525Z,101480.16
2022-12-19T23:36:38.039Z,101475.09
2022-12-19T23:39:05.564Z,101471.63
2022-12-19T23:41:32.578Z,101499.25
2022-12-19T23:43:59.760Z,101449.75
2022-12-19T23:46:27.000Z,101482.28
2022-12-19T23:48:54.209Z,101462.03
2022-12-19T23:51:22.901Z,101475.25
2022-12-19T23:53:49.989Z,101502.16
2022-12-19T23:56:23.011Z,101452.44
2022-12-19T23:58:54.847Z,101432.31
